sensor_id;sensor_type;location;lat;lon;timestamp;P1;durP1;ratioP1;P2;durP2;ratioP2
14369;SDS011;7268;50.792;0.252;2023-07-31T00:02:19;8.25;;;0.60;;
14369;SDS011;7268;50.792;0.252;2023-07-31T00:04:46;5.97;;;0.73;;
14369;SDS011;7268;50.792;0.252;2023-07-31T00:07:13;6.03;;;0.80;;
14369;SDS011;7268;50.792;0.252;2023-07-31T00:09:40;3.83;;;0.93;;
14369;SDS011;7268;50.792;0.252;2023-07-31T00:12:07;4.78;;;0.80;;
14369;SDS011;7268;50.792;0.252;2023-07-31T00:14:34;4.63;;;0.63;;
14369;SDS011;7268;50.792;0.252;2023-07-31T00:17:01;4.03;;;1.02;;
14369;SDS011;7268;50.792;0.252;2023-07-31T00:19:28;6.13;;;0.80;;
14369;SDS011;7268;50.792;0.252;2023-07-31T00:21:55;11.25;;;1.38;;
14369;SDS011;7268;50.792;0.252;2023-07-31T00:24:21;6.32;;;1.45;;
14369;SDS011;7268;50.792;0.252;2023-07-31T00:26:48;7.55;;;1.45;;
14369;SDS011;7268;50.792;0.252;2023-07-31T00:29:15;6.50;;;1.13;;
14369;SDS011;7268;50.792;0.252;2023-07-31T00:31:42;9.95;;;1.88;;
14369;SDS011;7268;50.792;0.252;2023-07-31T00:34:09;6.03;;;1.77;;
14369;SDS011;7268;50.792;0.252;2023-07-31T00:36:36;6.07;;;1.63;;
14369;SDS011;7268;50.792;0.252;2023-07-31T00:39:03;3.67;;;0.68;;
14369;SDS011;7268;50.792;0.252;2023-07-31T00:41:31;15.70;;;1.42;;
14369;SDS011;7268;50.792;0.252;2023-07-31T00:43:57;10.68;;;2.33;;
14369;SDS011;7268;50.792;0.252;2023-07-31T00:46:24;11.65;;;1.17;;
14369;SDS011;7268;50.792;0.252;2023-07-31T00:48:51;5.28;;;1.42;;
14369;SDS011;7268;50.792;0.252;2023-07-31T00:51:18;9.57;;;1.55;;
14369;SDS011;7268;50.792;0.252;2023-07-31T00:53:45;4.28;;;1.08;;
14369;SDS011;7268;50.792;0.252;2023-07-31T00:56:13;4.82;;;0.98;;
14369;SDS011;7268;50.792;0.252;2023-07-31T00:58:40;4.22;;;1.17;;
14369;SDS011;7268;50.792;0.252;2023-07-31T01:01:07;5.70;;;0.95;;
14369;SDS011;7268;50.792;0.252;2023-07-31T01:03:34;5.00;;;1.33;;
14369;SDS011;7268;50.792;0.252;2023-07-31T01:06:36;7.00;;;1.00;;
14369;SDS011;7268;50.792;0.252;2023-07-31T01:11:30;7.72;;;0.50;;
14369;SDS011;7268;50.792;0.252;2023-07-31T01:13:59;3.30;;;0.73;;
14369;SDS011;7268;50.792;0.252;2023-07-31T01:16:27;2.28;;;0.65;;
14369;SDS011;7268;50.792;0.252;2023-07-31T01:18:54;5.32;;;0.60;;
14369;SDS011;7268;50.792;0.252;2023-07-31T01:21:22;9.50;;;1.20;;
14369;SDS011;7268;50.792;0.252;2023-07-31T01:26:34;5.97;;;1.63;;
14369;SDS011;7268;50.792;0.252;2023-07-31T01:31:44;6.30;;;1.23;;
14369;SDS011;7268;50.792;0.252;2023-07-31T01:34:14;4.28;;;1.05;;
14369;SDS011;7268;50.792;0.252;2023-07-31T01:36:43;6.00;;;1.13;;
14369;SDS011;7268;50.792;0.252;2023-07-31T01:39:11;7.07;;;1.80;;
14369;SDS011;7268;50.792;0.252;2023-07-31T01:41:37;10.15;;;1.65;;
14369;SDS011;7268;50.792;0.252;2023-07-31T01:44:07;11.70;;;1.20;;
14369;SDS011;7268;50.792;0.252;2023-07-31T01:46:34;7.78;;;1.58;;
14369;SDS011;7268;50.792;0.252;2023-07-31T01:49:01;5.53;;;1.85;;
14369;SDS011;7268;50.792;0.252;2023-07-31T01:51:28;15.07;;;1.50;;
14369;SDS011;7268;50.792;0.252;2023-07-31T01:53:55;7.95;;;1.63;;
14369;SDS011;7268;50.792;0.252;2023-07-31T01:56:22;7.47;;;0.82;;
14369;SDS011;7268;50.792;0.252;2023-07-31T01:58:49;11.63;;;1.88;;
14369;SDS011;7268;50.792;0.252;2023-07-31T02:01:16;9.30;;;1.58;;
14369;SDS011;7268;50.792;0.252;2023-07-31T02:03:43;15.70;;;1.48;;
14369;SDS011;7268;50.792;0.252;2023-07-31T02:06:10;12.15;;;1.38;;
14369;SDS011;7268;50.792;0.252;2023-07-31T02:08:37;9.90;;;1.40;;
14369;SDS011;7268;50.792;0.252;2023-07-31T02:11:04;5.05;;;1.25;;
14369;SDS011;7268;50.792;0.252;2023-07-31T02:13:31;8.52;;;1.00;;
14369;SDS011;7268;50.792;0.252;2023-07-31T02:15:58;7.50;;;0.85;;
14369;SDS011;7268;50.792;0.252;2023-07-31T02:18:25;11.90;;;1.80;;
14369;SDS011;7268;50.792;0.252;2023-07-31T02:20:52;5.20;;;1.25;;
14369;SDS011;7268;50.792;0.252;2023-07-31T02:23:19;11.57;;;1.60;;
14369;SDS011;7268;50.792;0.252;2023-07-31T02:25:46;5.43;;;0.90;;
14369;SDS011;7268;50.792;0.252;2023-07-31T02:28:13;14.55;;;2.53;;
14369;SDS011;7268;50.792;0.252;2023-07-31T02:30:43;7.78;;;1.45;;
14369;SDS011;7268;50.792;0.252;2023-07-31T02:33:11;6.35;;;1.30;;
14369;SDS011;7268;50.792;0.252;2023-07-31T02:35:38;13.05;;;1.50;;
14369;SDS011;7268;50.792;0.252;2023-07-31T02:38:05;10.10;;;1.98;;
14369;SDS011;7268;50.792;0.252;2023-07-31T02:40:32;12.43;;;1.75;;
14369;SDS011;7268;50.792;0.252;2023-07-31T02:42:59;17.50;;;2.13;;
14369;SDS011;7268;50.792;0.252;2023-07-31T02:45:26;9.32;;;1.40;;
14369;SDS011;7268;50.792;0.252;2023-07-31T02:47:53;8.35;;;2.03;;
14369;SDS011;7268;50.792;0.252;2023-07-31T02:50:19;10.93;;;1.38;;
14369;SDS011;7268;50.792;0.252;2023-07-31T02:52:46;10.80;;;2.05;;
14369;SDS011;7268;50.792;0.252;2023-07-31T02:55:13;5.60;;;1.20;;
14369;SDS011;7268;50.792;0.252;2023-07-31T02:57:40;10.48;;;1.27;;
14369;SDS011;7268;50.792;0.252;2023-07-31T03:00:07;8.70;;;2.65;;
14369;SDS011;7268;50.792;0.252;2023-07-31T03:02:35;12.10;;;1.95;;
14369;SDS011;7268;50.792;0.252;2023-07-31T03:05:02;7.32;;;1.55;;
14369;SDS011;7268;50.792;0.252;2023-07-31T03:07:30;7.10;;;1.25;;
14369;SDS011;7268;50.792;0.252;2023-07-31T03:09:56;6.03;;;1.33;;
14369;SDS011;7268;50.792;0.252;2023-07-31T03:12:23;10.50;;;2.10;;
14369;SDS011;7268;50.792;0.252;2023-07-31T03:14:50;11.65;;;2.60;;
14369;SDS011;7268;50.792;0.252;2023-07-31T03:17:17;8.98;;;1.05;;
14369;SDS011;7268;50.792;0.252;2023-07-31T03:19:44;7.85;;;0.85;;
14369;SDS011;7268;50.792;0.252;2023-07-31T03:22:11;5.95;;;0.88;;
14369;SDS011;7268;50.792;0.252;2023-07-31T03:24:38;6.90;;;1.15;;
14369;SDS011;7268;50.792;0.252;2023-07-31T03:27:05;4.97;;;1.00;;
14369;SDS011;7268;50.792;0.252;2023-07-31T03:29:32;8.43;;;1.25;;
14369;SDS011;7268;50.792;0.252;2023-07-31T03:31:59;7.78;;;0.65;;
14369;SDS011;7268;50.792;0.252;2023-07-31T03:34:26;6.90;;;1.15;;
14369;SDS011;7268;50.792;0.252;2023-07-31T03:36:53;1.67;;;0.50;;
14369;SDS011;7268;50.792;0.252;2023-07-31T03:39:20;2.53;;;0.45;;
14369;SDS011;7268;50.792;0.252;2023-07-31T03:41:47;2.15;;;0.77;;
14369;SDS011;7268;50.792;0.252;2023-07-31T03:44:14;3.25;;;0.65;;
14369;SDS011;7268;50.792;0.252;2023-07-31T03:46:41;3.58;;;0.80;;
14369;SDS011;7268;50.792;0.252;2023-07-31T03:49:08;2.47;;;0.45;;
14369;SDS011;7268;50.792;0.252;2023-07-31T03:51:35;1.70;;;0.95;;
14369;SDS011;7268;50.792;0.252;2023-07-31T03:54:02;6.10;;;1.48;;
14369;SDS011;7268;50.792;0.252;2023-07-31T03:56:29;1.70;;;0.50;;
14369;SDS011;7268;50.792;0.252;2023-07-31T03:58:57;3.78;;;0.70;;
14369;SDS011;7268;50.792;0.252;2023-07-31T04:01:24;4.28;;;0.73;;
14369;SDS011;7268;50.792;0.252;2023-07-31T04:03:52;2.90;;;0.43;;
14369;SDS011;7268;50.792;0.252;2023-07-31T04:06:19;4.35;;;0.88;;
14369;SDS011;7268;50.792;0.252;2023-07-31T04:08:46;3.90;;;0.77;;
14369;SDS011;7268;50.792;0.252;2023-07-31T04:11:13;4.63;;;0.43;;
14369;SDS011;7268;50.792;0.252;2023-07-31T04:13:40;3.00;;;0.70;;
14369;SDS011;7268;50.792;0.252;2023-07-31T04:16:07;6.63;;;0.65;;
14369;SDS011;7268;50.792;0.252;2023-07-31T04:18:34;4.15;;;0.70;;
14369;SDS011;7268;50.792;0.252;2023-07-31T04:21:01;2.30;;;0.70;;
14369;SDS011;7268;50.792;0.252;2023-07-31T04:23:28;3.22;;;0.80;;
14369;SDS011;7268;50.792;0.252;2023-07-31T04:25:55;3.00;;;0.45;;
14369;SDS011;7268;50.792;0.252;2023-07-31T04:28:22;5.15;;;0.73;;
14369;SDS011;7268;50.792;0.252;2023-07-31T04:30:49;5.32;;;1.40;;
14369;SDS011;7268;50.792;0.252;2023-07-31T04:33:16;4.38;;;0.80;;
14369;SDS011;7268;50.792;0.252;2023-07-31T04:35:48;2.53;;;0.63;;
14369;SDS011;7268;50.792;0.252;2023-07-31T04:38:19;6.18;;;1.05;;
14369;SDS011;7268;50.792;0.252;2023-07-31T04:40:46;10.75;;;0.80;;
14369;SDS011;7268;50.792;0.252;2023-07-31T04:43:14;3.83;;;1.30;;
14369;SDS011;7268;50.792;0.252;2023-07-31T04:45:49;5.68;;;1.15;;
14369;SDS011;7268;50.792;0.252;2023-07-31T04:48:16;9.52;;;1.05;;
14369;SDS011;7268;50.792;0.252;2023-07-31T04:50:43;3.13;;;1.33;;
14369;SDS011;7268;50.792;0.252;2023-07-31T04:53:10;2.30;;;0.60;;
14369;SDS011;7268;50.792;0.252;2023-07-31T04:55:37;7.68;;;1.35;;
14369;SDS011;7268;50.792;0.252;2023-07-31T04:58:04;6.97;;;1.17;;
14369;SDS011;7268;50.792;0.252;2023-07-31T05:00:31;3.70;;;0.68;;
14369;SDS011;7268;50.792;0.252;2023-07-31T05:02:58;8.73;;;1.42;;
14369;SDS011;7268;50.792;0.252;2023-07-31T05:05:25;6.35;;;1.05;;
14369;SDS011;7268;50.792;0.252;2023-07-31T05:07:52;2.75;;;0.60;;
14369;SDS011;7268;50.792;0.252;2023-07-31T05:10:19;3.50;;;0.70;;
14369;SDS011;7268;50.792;0.252;2023-07-31T05:12:46;7.78;;;1.30;;
14369;SDS011;7268;50.792;0.252;2023-07-31T05:15:13;8.05;;;1.20;;
14369;SDS011;7268;50.792;0.252;2023-07-31T05:17:42;8.60;;;1.50;;
14369;SDS011;7268;50.792;0.252;2023-07-31T05:20:10;7.13;;;1.20;;
14369;SDS011;7268;50.792;0.252;2023-07-31T05:22:37;5.60;;;1.30;;
14369;SDS011;7268;50.792;0.252;2023-07-31T05:25:04;5.78;;;0.95;;
14369;SDS011;7268;50.792;0.252;2023-07-31T05:27:31;8.25;;;1.45;;
14369;SDS011;7268;50.792;0.252;2023-07-31T05:29:59;7.78;;;0.85;;
14369;SDS011;7268;50.792;0.252;2023-07-31T05:32:25;3.17;;;1.02;;
14369;SDS011;7268;50.792;0.252;2023-07-31T05:34:53;8.18;;;1.17;;
14369;SDS011;7268;50.792;0.252;2023-07-31T05:37:20;8.38;;;1.10;;
14369;SDS011;7268;50.792;0.252;2023-07-31T05:39:47;8.48;;;1.40;;
14369;SDS011;7268;50.792;0.252;2023-07-31T05:42:14;7.72;;;1.48;;
14369;SDS011;7268;50.792;0.252;2023-07-31T05:44:40;9.02;;;1.25;;
14369;SDS011;7268;50.792;0.252;2023-07-31T05:47:07;6.15;;;1.20;;
14369;SDS011;7268;50.792;0.252;2023-07-31T05:49:34;4.65;;;0.57;;
14369;SDS011;7268;50.792;0.252;2023-07-31T05:52:01;9.63;;;1.85;;
14369;SDS011;7268;50.792;0.252;2023-07-31T05:54:28;6.25;;;0.50;;
14369;SDS011;7268;50.792;0.252;2023-07-31T05:56:56;4.32;;;0.47;;
14369;SDS011;7268;50.792;0.252;2023-07-31T05:59:23;5.05;;;0.82;;
14369;SDS011;7268;50.792;0.252;2023-07-31T06:01:49;5.65;;;0.93;;
14369;SDS011;7268;50.792;0.252;2023-07-31T06:04:16;1.80;;;0.68;;
14369;SDS011;7268;50.792;0.252;2023-07-31T06:06:44;8.27;;;1.00;;
14369;SDS011;7268;50.792;0.252;2023-07-31T06:09:11;7.88;;;0.52;;
14369;SDS011;7268;50.792;0.252;2023-07-31T06:11:38;2.30;;;0.30;;
14369;SDS011;7268;50.792;0.252;2023-07-31T06:14:05;1.10;;;0.65;;
14369;SDS011;7268;50.792;0.252;2023-07-31T06:16:31;5.28;;;1.02;;
14369;SDS011;7268;50.792;0.252;2023-07-31T06:18:58;6.55;;;1.05;;
14369;SDS011;7268;50.792;0.252;2023-07-31T06:21:25;7.32;;;1.23;;
14369;SDS011;7268;50.792;0.252;2023-07-31T06:23:52;5.35;;;0.75;;
14369;SDS011;7268;50.792;0.252;2023-07-31T06:26:19;2.60;;;0.40;;
14369;SDS011;7268;50.792;0.252;2023-07-31T06:28:46;8.40;;;1.45;;
14369;SDS011;7268;50.792;0.252;2023-07-31T06:31:13;6.47;;;0.80;;
14369;SDS011;7268;50.792;0.252;2023-07-31T06:33:40;4.70;;;0.30;;
14369;SDS011;7268;50.792;0.252;2023-07-31T06:36:07;10.38;;;1.80;;
14369;SDS011;7268;50.792;0.252;2023-07-31T06:38:34;7.53;;;1.38;;
14369;SDS011;7268;50.792;0.252;2023-07-31T06:41:01;6.43;;;1.48;;
14369;SDS011;7268;50.792;0.252;2023-07-31T06:43:28;6.25;;;1.52;;
14369;SDS011;7268;50.792;0.252;2023-07-31T06:45:55;6.97;;;1.65;;
14369;SDS011;7268;50.792;0.252;2023-07-31T06:48:22;7.88;;;0.95;;
14369;SDS011;7268;50.792;0.252;2023-07-31T06:50:48;7.28;;;0.82;;
14369;SDS011;7268;50.792;0.252;2023-07-31T06:53:15;3.55;;;1.38;;
14369;SDS011;7268;50.792;0.252;2023-07-31T06:55:42;6.28;;;1.30;;
14369;SDS011;7268;50.792;0.252;2023-07-31T06:58:09;7.88;;;0.75;;
14369;SDS011;7268;50.792;0.252;2023-07-31T07:00:36;8.63;;;1.13;;
14369;SDS011;7268;50.792;0.252;2023-07-31T07:03:03;14.23;;;1.42;;
14369;SDS011;7268;50.792;0.252;2023-07-31T07:05:30;10.48;;;1.30;;
14369;SDS011;7268;50.792;0.252;2023-07-31T07:07:57;7.60;;;1.10;;
14369;SDS011;7268;50.792;0.252;2023-07-31T07:10:24;7.95;;;0.57;;
14369;SDS011;7268;50.792;0.252;2023-07-31T07:12:53;4.63;;;0.90;;
14369;SDS011;7268;50.792;0.252;2023-07-31T07:15:21;3.15;;;0.35;;
14369;SDS011;7268;50.792;0.252;2023-07-31T07:17:48;5.60;;;0.52;;
14369;SDS011;7268;50.792;0.252;2023-07-31T07:20:15;3.10;;;0.82;;
14369;SDS011;7268;50.792;0.252;2023-07-31T07:22:42;7.05;;;1.17;;
14369;SDS011;7268;50.792;0.252;2023-07-31T07:25:09;6.65;;;1.27;;
14369;SDS011;7268;50.792;0.252;2023-07-31T07:27:36;18.08;;;1.77;;
14369;SDS011;7268;50.792;0.252;2023-07-31T07:30:03;6.85;;;1.20;;
14369;SDS011;7268;50.792;0.252;2023-07-31T07:32:32;7.85;;;1.45;;
14369;SDS011;7268;50.792;0.252;2023-07-31T07:34:59;7.45;;;0.88;;
14369;SDS011;7268;50.792;0.252;2023-07-31T07:37:26;4.97;;;0.73;;
14369;SDS011;7268;50.792;0.252;2023-07-31T07:39:53;11.23;;;1.58;;
14369;SDS011;7268;50.792;0.252;2023-07-31T07:42:20;9.75;;;1.48;;
14369;SDS011;7268;50.792;0.252;2023-07-31T07:44:47;3.90;;;0.80;;
14369;SDS011;7268;50.792;0.252;2023-07-31T07:47:14;9.88;;;1.55;;
14369;SDS011;7268;50.792;0.252;2023-07-31T07:49:40;7.70;;;1.05;;
14369;SDS011;7268;50.792;0.252;2023-07-31T07:52:09;12.75;;;1.42;;
14369;SDS011;7268;50.792;0.252;2023-07-31T07:54:36;9.48;;;1.05;;
14369;SDS011;7268;50.792;0.252;2023-07-31T07:57:03;5.50;;;0.80;;
14369;SDS011;7268;50.792;0.252;2023-07-31T07:59:30;7.55;;;0.40;;
14369;SDS011;7268;50.792;0.252;2023-07-31T08:01:57;3.17;;;0.47;;
14369;SDS011;7268;50.792;0.252;2023-07-31T08:04:24;2.97;;;0.70;;
14369;SDS011;7268;50.792;0.252;2023-07-31T08:06:51;10.25;;;0.93;;
14369;SDS011;7268;50.792;0.252;2023-07-31T08:09:18;1.05;;;0.10;;
14369;SDS011;7268;50.792;0.252;2023-07-31T08:11:44;1.30;;;0.22;;
14369;SDS011;7268;50.792;0.252;2023-07-31T08:14:11;1.30;;;0.43;;
14369;SDS011;7268;50.792;0.252;2023-07-31T08:16:38;2.08;;;0.40;;
14369;SDS011;7268;50.792;0.252;2023-07-31T08:19:06;4.72;;;0.38;;
14369;SDS011;7268;50.792;0.252;2023-07-31T08:21:33;2.85;;;0.30;;
14369;SDS011;7268;50.792;0.252;2023-07-31T08:24:00;3.15;;;0.52;;
14369;SDS011;7268;50.792;0.252;2023-07-31T08:26:27;1.98;;;0.32;;
14369;SDS011;7268;50.792;0.252;2023-07-31T08:28:54;5.97;;;0.57;;
14369;SDS011;7268;50.792;0.252;2023-07-31T08:31:21;3.75;;;0.20;;
14369;SDS011;7268;50.792;0.252;2023-07-31T08:33:48;4.38;;;0.20;;
14369;SDS011;7268;50.792;0.252;2023-07-31T08:36:14;5.43;;;0.43;;
14369;SDS011;7268;50.792;0.252;2023-07-31T08:38:41;5.50;;;0.20;;
14369;SDS011;7268;50.792;0.252;2023-07-31T08:41:08;1.25;;;0.43;;
14369;SDS011;7268;50.792;0.252;2023-07-31T08:43:35;2.13;;;0.43;;
14369;SDS011;7268;50.792;0.252;2023-07-31T08:46:04;2.35;;;0.22;;
14369;SDS011;7268;50.792;0.252;2023-07-31T08:48:32;2.40;;;0.32;;
14369;SDS011;7268;50.792;0.252;2023-07-31T08:50:59;1.83;;;0.52;;
14369;SDS011;7268;50.792;0.252;2023-07-31T08:53:26;2.63;;;0.13;;
14369;SDS011;7268;50.792;0.252;2023-07-31T08:55:53;0.68;;;0.22;;
14369;SDS011;7268;50.792;0.252;2023-07-31T08:58:22;2.10;;;0.28;;
14369;SDS011;7268;50.792;0.252;2023-07-31T09:00:51;2.15;;;0.30;;
14369;SDS011;7268;50.792;0.252;2023-07-31T09:03:20;3.40;;;0.43;;
14369;SDS011;7268;50.792;0.252;2023-07-31T09:05:51;0.90;;;0.40;;
14369;SDS011;7268;50.792;0.252;2023-07-31T09:08:21;1.00;;;0.30;;
14369;SDS011;7268;50.792;0.252;2023-07-31T09:10:48;2.65;;;0.20;;
14369;SDS011;7268;50.792;0.252;2023-07-31T09:13:18;2.47;;;0.60;;
14369;SDS011;7268;50.792;0.252;2023-07-31T09:15:45;1.48;;;0.50;;
14369;SDS011;7268;50.792;0.252;2023-07-31T09:18:13;2.33;;;0.10;;
14369;SDS011;7268;50.792;0.252;2023-07-31T09:20:45;2.10;;;0.68;;
14369;SDS011;7268;50.792;0.252;2023-07-31T09:23:13;2.55;;;0.40;;
14369;SDS011;7268;50.792;0.252;2023-07-31T09:25:44;4.70;;;0.20;;
14369;SDS011;7268;50.792;0.252;2023-07-31T09:28:12;7.22;;;0.93;;
14369;SDS011;7268;50.792;0.252;2023-07-31T09:30:46;0.98;;;0.00;;
14369;SDS011;7268;50.792;0.252;2023-07-31T09:33:18;1.00;;;0.13;;
14369;SDS011;7268;50.792;0.252;2023-07-31T09:35:46;0.90;;;0.38;;
14369;SDS011;7268;50.792;0.252;2023-07-31T09:38:15;2.08;;;0.25;;
14369;SDS011;7268;50.792;0.252;2023-07-31T09:40:43;2.78;;;0.32;;
14369;SDS011;7268;50.792;0.252;2023-07-31T09:43:12;2.40;;;0.10;;
14369;SDS011;7268;50.792;0.252;2023-07-31T09:45:43;1.45;;;0.00;;
14369;SDS011;7268;50.792;0.252;2023-07-31T09:48:11;3.80;;;0.20;;
14369;SDS011;7268;50.792;0.252;2023-07-31T09:50:43;0.60;;;0.22;;
14369;SDS011;7268;50.792;0.252;2023-07-31T09:53:15;1.75;;;0.20;;
14369;SDS011;7268;50.792;0.252;2023-07-31T09:55:43;2.70;;;0.35;;
14369;SDS011;7268;50.792;0.252;2023-07-31T09:58:11;0.90;;;0.20;;
14369;SDS011;7268;50.792;0.252;2023-07-31T10:00:39;1.08;;;0.00;;
14369;SDS011;7268;50.792;0.252;2023-07-31T10:03:07;1.95;;;0.30;;
14369;SDS011;7268;50.792;0.252;2023-07-31T10:05:45;8.00;;;0.40;;
14369;SDS011;7268;50.792;0.252;2023-07-31T10:08:16;5.43;;;0.08;;
14369;SDS011;7268;50.792;0.252;2023-07-31T10:10:46;3.30;;;0.22;;
14369;SDS011;7268;50.792;0.252;2023-07-31T10:13:13;1.55;;;0.40;;
14369;SDS011;7268;50.792;0.252;2023-07-31T10:15:41;4.22;;;0.40;;
14369;SDS011;7268;50.792;0.252;2023-07-31T10:18:10;1.65;;;0.10;;
14369;SDS011;7268;50.792;0.252;2023-07-31T10:20:37;0.60;;;0.00;;
14369;SDS011;7268;50.792;0.252;2023-07-31T10:23:04;0.70;;;0.28;;
14369;SDS011;7268;50.792;0.252;2023-07-31T10:25:32;0.40;;;0.05;;
14369;SDS011;7268;50.792;0.252;2023-07-31T10:28:00;1.50;;;0.10;;
14369;SDS011;7268;50.792;0.252;2023-07-31T10:30:29;1.50;;;0.22;;
14369;SDS011;7268;50.792;0.252;2023-07-31T10:32:57;0.95;;;0.10;;
14369;SDS011;7268;50.792;0.252;2023-07-31T10:35:24;0.20;;;0.00;;
14369;SDS011;7268;50.792;0.252;2023-07-31T10:37:52;1.70;;;0.10;;
14369;SDS011;7268;50.792;0.252;2023-07-31T10:40:19;0.30;;;0.10;;
14369;SDS011;7268;50.792;0.252;2023-07-31T10:42:53;0.38;;;0.10;;
14369;SDS011;7268;50.792;0.252;2023-07-31T10:45:25;0.40;;;0.00;;
14369;SDS011;7268;50.792;0.252;2023-07-31T10:48:06;1.30;;;0.10;;
14369;SDS011;7268;50.792;0.252;2023-07-31T10:50:40;0.75;;;0.10;;
14369;SDS011;7268;50.792;0.252;2023-07-31T10:53:24;1.80;;;0.20;;
14369;SDS011;7268;50.792;0.252;2023-07-31T10:55:57;0.98;;;0.50;;
14369;SDS011;7268;50.792;0.252;2023-07-31T10:58:29;1.15;;;0.00;;
14369;SDS011;7268;50.792;0.252;2023-07-31T11:01:01;2.95;;;0.10;;
14369;SDS011;7268;50.792;0.252;2023-07-31T11:03:50;1.10;;;0.10;;
14369;SDS011;7268;50.792;0.252;2023-07-31T11:06:20;0.75;;;0.50;;
14369;SDS011;7268;50.792;0.252;2023-07-31T11:08:48;0.35;;;0.00;;
14369;SDS011;7268;50.792;0.252;2023-07-31T11:11:17;2.03;;;0.60;;
14369;SDS011;7268;50.792;0.252;2023-07-31T11:13:46;1.85;;;0.05;;
14369;SDS011;7268;50.792;0.252;2023-07-31T11:16:19;2.60;;;0.13;;
14369;SDS011;7268;50.792;0.252;2023-07-31T11:18:48;0.50;;;0.20;;
14369;SDS011;7268;50.792;0.252;2023-07-31T11:21:18;1.13;;;0.38;;
14369;SDS011;7268;50.792;0.252;2023-07-31T11:23:47;3.55;;;0.32;;
14369;SDS011;7268;50.792;0.252;2023-07-31T11:26:16;2.42;;;0.10;;
14369;SDS011;7268;50.792;0.252;2023-07-31T11:28:46;0.75;;;0.20;;
14369;SDS011;7268;50.792;0.252;2023-07-31T11:31:14;0.77;;;0.20;;
14369;SDS011;7268;50.792;0.252;2023-07-31T11:33:41;3.55;;;0.10;;
14369;SDS011;7268;50.792;0.252;2023-07-31T11:36:15;1.35;;;0.00;;
14369;SDS011;7268;50.792;0.252;2023-07-31T11:38:43;3.92;;;0.20;;
14369;SDS011;7268;50.792;0.252;2023-07-31T11:41:13;1.67;;;0.55;;
14369;SDS011;7268;50.792;0.252;2023-07-31T11:43:42;1.45;;;0.20;;
14369;SDS011;7268;50.792;0.252;2023-07-31T11:46:09;5.22;;;1.02;;
14369;SDS011;7268;50.792;0.252;2023-07-31T11:48:36;0.50;;;0.10;;
14369;SDS011;7268;50.792;0.252;2023-07-31T11:51:05;1.10;;;0.22;;
14369;SDS011;7268;50.792;0.252;2023-07-31T11:53:36;0.70;;;0.25;;
14369;SDS011;7268;50.792;0.252;2023-07-31T11:56:10;3.38;;;0.20;;
14369;SDS011;7268;50.792;0.252;2023-07-31T11:58:39;1.65;;;0.10;;
14369;SDS011;7268;50.792;0.252;2023-07-31T12:01:09;4.47;;;0.00;;
14369;SDS011;7268;50.792;0.252;2023-07-31T12:03:37;1.10;;;0.28;;
14369;SDS011;7268;50.792;0.252;2023-07-31T12:06:05;2.38;;;0.20;;
14369;SDS011;7268;50.792;0.252;2023-07-31T12:08:32;0.63;;;0.10;;
14369;SDS011;7268;50.792;0.252;2023-07-31T12:11:03;0.90;;;0.30;;
14369;SDS011;7268;50.792;0.252;2023-07-31T12:13:32;1.80;;;0.10;;
14369;SDS011;7268;50.792;0.252;2023-07-31T12:16:00;1.20;;;0.10;;
14369;SDS011;7268;50.792;0.252;2023-07-31T12:18:36;1.70;;;0.40;;
14369;SDS011;7268;50.792;0.252;2023-07-31T12:21:05;0.77;;;0.00;;
14369;SDS011;7268;50.792;0.252;2023-07-31T12:23:35;1.60;;;0.90;;
14369;SDS011;7268;50.792;0.252;2023-07-31T12:26:11;1.23;;;0.28;;
14369;SDS011;7268;50.792;0.252;2023-07-31T12:28:43;0.30;;;0.20;;
14369;SDS011;7268;50.792;0.252;2023-07-31T12:31:15;0.20;;;0.00;;
14369;SDS011;7268;50.792;0.252;2023-07-31T12:33:46;2.05;;;0.20;;
14369;SDS011;7268;50.792;0.252;2023-07-31T12:36:17;1.23;;;0.00;;
14369;SDS011;7268;50.792;0.252;2023-07-31T12:38:48;0.50;;;0.10;;
14369;SDS011;7268;50.792;0.252;2023-07-31T12:41:16;1.73;;;0.22;;
14369;SDS011;7268;50.792;0.252;2023-07-31T12:43:43;1.83;;;0.17;;
14369;SDS011;7268;50.792;0.252;2023-07-31T12:46:11;8.68;;;0.40;;
14369;SDS011;7268;50.792;0.252;2023-07-31T12:48:39;4.32;;;0.73;;
14369;SDS011;7268;50.792;0.252;2023-07-31T12:51:06;4.10;;;0.20;;
14369;SDS011;7268;50.792;0.252;2023-07-31T12:53:34;0.73;;;0.30;;
14369;SDS011;7268;50.792;0.252;2023-07-31T12:56:01;5.35;;;0.20;;
14369;SDS011;7268;50.792;0.252;2023-07-31T12:58:28;2.33;;;0.10;;
14369;SDS011;7268;50.792;0.252;2023-07-31T13:00:56;2.50;;;0.15;;
14369;SDS011;7268;50.792;0.252;2023-07-31T13:03:23;10.02;;;0.40;;
14369;SDS011;7268;50.792;0.252;2023-07-31T13:05:50;9.88;;;0.20;;
14369;SDS011;7268;50.792;0.252;2023-07-31T13:08:18;3.33;;;0.28;;
14369;SDS011;7268;50.792;0.252;2023-07-31T13:10:45;1.15;;;0.22;;
14369;SDS011;7268;50.792;0.252;2023-07-31T13:13:12;3.83;;;0.10;;
14369;SDS011;7268;50.792;0.252;2023-07-31T13:15:39;4.18;;;0.10;;
14369;SDS011;7268;50.792;0.252;2023-07-31T13:18:06;3.03;;;0.40;;
14369;SDS011;7268;50.792;0.252;2023-07-31T13:20:33;6.32;;;0.10;;
14369;SDS011;7268;50.792;0.252;2023-07-31T13:23:00;1.40;;;0.40;;
14369;SDS011;7268;50.792;0.252;2023-07-31T13:25:27;0.55;;;0.17;;
14369;SDS011;7268;50.792;0.252;2023-07-31T13:27:55;4.35;;;0.80;;
14369;SDS011;7268;50.792;0.252;2023-07-31T13:30:22;2.58;;;0.25;;
14369;SDS011;7268;50.792;0.252;2023-07-31T13:32:49;1.77;;;0.15;;
14369;SDS011;7268;50.792;0.252;2023-07-31T13:35:16;0.90;;;0.30;;
14369;SDS011;7268;50.792;0.252;2023-07-31T13:37:43;2.38;;;0.35;;
14369;SDS011;7268;50.792;0.252;2023-07-31T13:40:10;2.50;;;0.20;;
14369;SDS011;7268;50.792;0.252;2023-07-31T13:42:37;1.23;;;0.38;;
14369;SDS011;7268;50.792;0.252;2023-07-31T13:45:04;2.88;;;0.63;;
14369;SDS011;7268;50.792;0.252;2023-07-31T13:47:33;1.05;;;0.25;;
14369;SDS011;7268;50.792;0.252;2023-07-31T13:50:01;2.50;;;0.00;;
14369;SDS011;7268;50.792;0.252;2023-07-31T13:54:55;5.03;;;0.45;;
14369;SDS011;7268;50.792;0.252;2023-07-31T13:57:22;3.28;;;0.15;;
14369;SDS011;7268;50.792;0.252;2023-07-31T13:59:50;2.22;;;0.30;;
14369;SDS011;7268;50.792;0.252;2023-07-31T14:02:17;3.50;;;0.10;;
14369;SDS011;7268;50.792;0.252;2023-07-31T14:04:44;3.38;;;0.95;;
14369;SDS011;7268;50.792;0.252;2023-07-31T14:07:11;1.85;;;0.20;;
14369;SDS011;7268;50.792;0.252;2023-07-31T14:09:38;1.05;;;0.30;;
14369;SDS011;7268;50.792;0.252;2023-07-31T14:12:05;3.20;;;0.60;;
14369;SDS011;7268;50.792;0.252;2023-07-31T14:14:32;4.97;;;0.60;;
14369;SDS011;7268;50.792;0.252;2023-07-31T14:17:00;0.63;;;0.10;;
14369;SDS011;7268;50.792;0.252;2023-07-31T14:21:55;1.10;;;0.10;;
14369;SDS011;7268;50.792;0.252;2023-07-31T14:24:37;2.25;;;0.35;;
14369;SDS011;7268;50.792;0.252;2023-07-31T14:29:31;3.35;;;0.25;;
14369;SDS011;7268;50.792;0.252;2023-07-31T14:31:58;7.10;;;1.10;;
14369;SDS011;7268;50.792;0.252;2023-07-31T14:34:26;5.25;;;0.90;;
14369;SDS011;7268;50.792;0.252;2023-07-31T14:36:53;4.25;;;0.45;;
14369;SDS011;7268;50.792;0.252;2023-07-31T14:39:20;4.13;;;0.50;;
14369;SDS011;7268;50.792;0.252;2023-07-31T14:41:47;7.97;;;0.50;;
14369;SDS011;7268;50.792;0.252;2023-07-31T14:44:14;1.45;;;0.25;;
14369;SDS011;7268;50.792;0.252;2023-07-31T14:46:41;3.83;;;0.20;;
14369;SDS011;7268;50.792;0.252;2023-07-31T14:51:36;2.63;;;0.70;;
14369;SDS011;7268;50.792;0.252;2023-07-31T14:54:03;2.35;;;0.70;;
14369;SDS011;7268;50.792;0.252;2023-07-31T14:56:29;2.83;;;0.50;;
14369;SDS011;7268;50.792;0.252;2023-07-31T14:58:57;3.13;;;0.55;;
14369;SDS011;7268;50.792;0.252;2023-07-31T15:01:23;3.38;;;0.20;;
14369;SDS011;7268;50.792;0.252;2023-07-31T15:03:51;5.15;;;0.20;;
14369;SDS011;7268;50.792;0.252;2023-07-31T15:06:18;5.70;;;2.00;;
14369;SDS011;7268;50.792;0.252;2023-07-31T15:08:45;5.68;;;0.45;;
14369;SDS011;7268;50.792;0.252;2023-07-31T15:11:11;2.40;;;0.52;;
14369;SDS011;7268;50.792;0.252;2023-07-31T15:13:39;3.22;;;0.40;;
14369;SDS011;7268;50.792;0.252;2023-07-31T15:16:06;3.05;;;0.50;;
14369;SDS011;7268;50.792;0.252;2023-07-31T15:18:33;1.70;;;0.40;;
14369;SDS011;7268;50.792;0.252;2023-07-31T15:21:00;2.40;;;0.32;;
14369;SDS011;7268;50.792;0.252;2023-07-31T15:23:27;1.63;;;0.30;;